Terminal Aerodrome Forecast
Issued by NWS

Home | Current Version | Previous Version | Text Only | Print | Product List | Glossary Off
Versions: 1 2 3 4 5 6 7 8 9 10 11 12 13 14 15 16

000
FTUS43 KABR 181900 AAA
TAFPIR
TAF AMD
KPIR 181900Z 1819/1918 33010G16KT P6SM FEW250
     FM182200 29010KT P6SM FEW250
     FM190000 27004KT P6SM FEW200
     FM190800 14007KT P6SM FEW250 WS020/20035KT
     FM191400 17007KT P6SM FEW250=

USA.gov is the U.S. government's official web portal to all federal, state and local government web resources and services.